9IL6 weather

Weishaupt Airport
Mackinaw, Illinois, United States

Public forecast

Using degrees Fahrenheit for public forecast. Weather courtesy of forecast.io.

METAR (pilot weather report)

Closest report is General Wayne A. Downing Peoria International Airport, 17.4 nm (32.2 km) WNW. Retrieved 2019/06/20 19:54 UTC (40 minutes ago):

KPIA 201954Z 34009G15KT 10SM SCT046 24/13 A2979 RMK AO2 SLP085 T02390133

TAF (pilot weather forecast)

Closest forecast is General Wayne A. Downing Peoria International Airport, 17.4 nm (32.2 km) WNW. Retrieved 2019/06/20 18:42 UTC (2 hours ago):

TAF KPIA 201740Z 2018/2118 30012KT P6SM SCT025 FM210000 35005KT P6SM SCT150 FM211200 11009KT P6SM BKN080